createdAt,value
2023-03-17T00:03:29.734Z,-2.65
2023-03-17T00:08:34.270Z,-2.71
2023-03-17T00:13:35.816Z,-2.76
2023-03-17T00:18:37.673Z,-2.80
2023-03-17T00:23:39.677Z,-2.85
2023-03-17T00:28:41.278Z,-2.90
2023-03-17T00:33:45.419Z,-3.02
2023-03-17T00:38:47.462Z,-3.14
2023-03-17T00:43:49.786Z,-3.25
2023-03-17T00:48:51.299Z,-3.31
2023-03-17T00:53:52.816Z,-3.41
2023-03-17T00:58:54.531Z,-3.51
2023-03-17T01:03:56.660Z,-3.59
2023-03-17T01:08:58.303Z,-3.64
2023-03-17T01:13:59.816Z,-3.65
2023-03-17T01:19:01.496Z,-3.63
2023-03-17T01:24:03.958Z,-3.61
2023-03-17T01:29:07.913Z,-3.58
2023-03-17T01:34:10.217Z,-3.50
2023-03-17T01:39:13.337Z,-3.43
2023-03-17T01:44:17.479Z,-3.40
2023-03-17T01:49:38.496Z,-3.37
2023-03-17T01:54:46.289Z,-3.37
2023-03-17T01:59:53.571Z,-3.38
2023-03-17T02:04:55.414Z,-3.40
2023-03-17T02:09:58.259Z,-3.40
2023-03-17T02:14:59.803Z,-3.45
2023-03-17T02:20:17.219Z,-3.50
2023-03-17T02:25:21.528Z,-3.56
2023-03-17T02:30:24.121Z,-3.64
2023-03-17T02:35:25.627Z,-3.73
2023-03-17T02:40:27.517Z,-3.84
2023-03-17T02:45:30.011Z,-3.93
2023-03-17T02:50:32.216Z,-4.02
2023-03-17T02:55:33.851Z,-4.11
2023-03-17T03:00:35.439Z,-4.16
2023-03-17T03:05:37.722Z,-4.10
2023-03-17T03:10:39.487Z,-4.03
2023-03-17T03:15:42.919Z,-3.98
2023-03-17T03:20:47.306Z,-3.93
2023-03-17T03:25:48.818Z,-3.87
2023-03-17T03:30:50.541Z,-3.80
2023-03-17T03:35:52.384Z,-3.76
2023-03-17T03:40:54.041Z,-3.74
2023-03-17T03:45:56.170Z,-3.73
2023-03-17T03:51:00.042Z,-3.74
2023-03-17T03:56:02.078Z,-3.73
2023-03-17T04:01:09.962Z,-3.73
2023-03-17T04:06:11.851Z,-3.76
2023-03-17T04:11:13.599Z,-3.81
2023-03-17T04:16:16.726Z,-3.85
2023-03-17T04:21:19.307Z,-3.85
2023-03-17T04:26:23.170Z,-3.86
2023-03-17T04:31:24.789Z,-3.84
2023-03-17T04:36:27.127Z,-3.75
2023-03-17T04:41:28.666Z,-3.67
2023-03-17T04:46:30.699Z,-3.58
2023-03-17T04:51:32.355Z,-3.54
2023-03-17T04:56:34.811Z,-3.50
2023-03-17T05:01:39.096Z,-3.50
2023-03-17T05:06:41.283Z,-3.51
2023-03-17T05:11:42.874Z,-3.54
2023-03-17T05:16:47.923Z,-3.53
2023-03-17T05:21:49.955Z,-3.45
2023-03-17T05:26:51.456Z,-3.25
2023-03-17T05:31:53.017Z,-3.02
2023-03-17T05:36:54.526Z,-2.81
2023-03-17T05:41:57.198Z,-2.54
2023-03-17T05:46:59.795Z,-2.29
2023-03-17T05:52:01.564Z,-2.07
2023-03-17T05:57:04.319Z,-1.87
2023-03-17T06:02:05.886Z,-1.61
2023-03-17T06:07:09.817Z,-1.27
2023-03-17T06:12:11.406Z,-0.96
2023-03-17T06:17:14.703Z,-0.67
2023-03-17T06:22:16.232Z,-0.42
2023-03-17T06:27:17.726Z,-0.23
2023-03-17T06:32:21.073Z,0.09
2023-03-17T06:37:22.734Z,0.38
2023-03-17T06:42:24.244Z,0.79
2023-03-17T06:47:26.129Z,1.24
2023-03-17T06:52:28.097Z,1.49
2023-03-17T06:57:29.637Z,1.58
2023-03-17T07:02:31.144Z,1.64
2023-03-17T07:07:32.659Z,2.09
2023-03-17T07:12:34.419Z,3.08
2023-03-17T07:17:36.427Z,5.43
2023-03-17T07:22:38.041Z,7.21
2023-03-17T07:27:39.905Z,6.80
2023-03-17T07:32:42.087Z,5.94
2023-03-17T07:37:44.966Z,5.58
2023-03-17T07:42:46.524Z,5.29
2023-03-17T07:47:48.180Z,4.77
2023-03-17T07:52:49.697Z,4.54
2023-03-17T07:57:51.437Z,4.44
2023-03-17T08:03:06.967Z,4.49
2023-03-17T08:08:11.553Z,4.59
2023-03-17T08:13:13.082Z,4.66
2023-03-17T08:18:14.596Z,4.82
2023-03-17T08:23:16.950Z,5.12
2023-03-17T08:28:18.515Z,5.24
2023-03-17T08:33:20.895Z,5.43
2023-03-17T08:38:22.698Z,5.54
2023-03-17T08:43:24.273Z,5.67
2023-03-17T08:48:25.762Z,5.69
2023-03-17T08:53:27.826Z,6.03
2023-03-17T08:58:29.506Z,6.50
2023-03-17T09:03:32.769Z,6.47
2023-03-17T09:08:35.358Z,6.64
2023-03-17T09:13:39.143Z,6.82
2023-03-17T09:18:41.175Z,7.00
2023-03-17T09:23:43.491Z,7.14
2023-03-17T09:28:45.355Z,7.38
2023-03-17T09:33:47.802Z,7.58
2023-03-17T09:38:49.527Z,8.09
2023-03-17T09:44:19.443Z,8.81
2023-03-17T09:49:26.680Z,9.09
2023-03-17T09:54:38.214Z,9.53
2023-03-17T09:59:43.860Z,12.08
2023-03-17T10:04:46.256Z,14.64
2023-03-17T10:10:14.769Z,17.87
2023-03-17T10:15:51.919Z,18.84
2023-03-17T10:20:58.831Z,17.74
2023-03-17T10:26:08.229Z,21.15
2023-03-17T10:31:19.270Z,23.25
2023-03-17T10:36:40.381Z,24.56
2023-03-17T10:41:53.666Z,25.83
2023-03-17T10:46:57.179Z,25.56
2023-03-17T10:51:58.782Z,25.92
2023-03-17T10:57:06.305Z,25.44
2023-03-17T11:02:28.303Z,25.75
2023-03-17T11:07:39.957Z,27.14
2023-03-17T11:12:41.794Z,26.40
2023-03-17T11:18:01.867Z,25.56
2023-03-17T11:23:29.819Z,24.86
2023-03-17T11:28:39.129Z,23.73
2023-03-17T11:33:56.379Z,23.70
2023-03-17T11:39:17.522Z,23.59
2023-03-17T11:44:24.889Z,22.86
2023-03-17T11:49:36.379Z,22.03
2023-03-17T11:54:58.821Z,21.99
2023-03-17T12:00:05.497Z,23.35
2023-03-17T12:05:13.332Z,24.22
2023-03-17T12:10:31.264Z,24.52
2023-03-17T12:15:38.890Z,24.47
2023-03-17T12:20:59.864Z,23.21
2023-03-17T12:26:13.727Z,22.52
2023-03-17T12:31:22.898Z,21.35
2023-03-17T12:36:25.214Z,21.24
2023-03-17T12:41:49.113Z,19.44
2023-03-17T12:47:36.348Z,17.93
2023-03-17T12:52:40.907Z,16.29
2023-03-17T12:58:15.834Z,15.61
2023-03-17T13:03:28.056Z,15.42
2023-03-17T13:08:35.971Z,15.10
2023-03-17T13:13:45.100Z,14.99
2023-03-17T13:18:50.734Z,14.67
2023-03-17T13:24:13.983Z,14.10
2023-03-17T13:29:34.212Z,13.98
2023-03-17T13:34:46.615Z,13.51
2023-03-17T13:39:48.806Z,12.76
2023-03-17T13:45:32.712Z,12.33
2023-03-17T13:50:34.490Z,11.71
2023-03-17T13:55:38.691Z,11.29
2023-03-17T14:00:44.359Z,10.88
2023-03-17T14:05:50.921Z,10.63
2023-03-17T14:11:03.006Z,10.61
2023-03-17T14:16:27.875Z,10.37
2023-03-17T14:21:33.785Z,10.47
2023-03-17T14:26:35.787Z,10.79
2023-03-17T14:31:37.389Z,10.97
2023-03-17T14:36:38.937Z,10.91
2023-03-17T14:41:40.973Z,10.75
2023-03-17T14:46:42.849Z,10.46
2023-03-17T14:51:45.001Z,10.08
2023-03-17T14:56:51.080Z,9.73
2023-03-17T15:02:02.218Z,9.65
2023-03-17T15:07:06.730Z,9.39
2023-03-17T15:12:23.630Z,9.19
2023-03-17T15:17:32.894Z,8.96
2023-03-17T15:22:34.376Z,8.86
2023-03-17T15:27:35.992Z,8.86
2023-03-17T15:32:38.430Z,8.80
2023-03-17T15:37:41.270Z,8.70
2023-03-17T15:42:42.933Z,8.67
2023-03-17T15:47:47.144Z,8.82
2023-03-17T15:52:49.006Z,9.10
2023-03-17T15:57:55.182Z,9.51
2023-03-17T16:03:01.482Z,9.75
2023-03-17T16:08:03.509Z,9.75
2023-03-17T16:13:05.355Z,9.49
2023-03-17T16:18:13.871Z,9.07
2023-03-17T16:23:22.189Z,8.59
2023-03-17T16:28:30.750Z,8.12
2023-03-17T16:33:40.453Z,7.71
2023-03-17T16:38:42.835Z,7.34
2023-03-17T16:43:46.271Z,6.97
2023-03-17T16:48:49.684Z,6.65
2023-03-17T16:53:51.587Z,6.39
2023-03-17T16:58:53.091Z,6.12
2023-03-17T17:03:56.022Z,5.86
2023-03-17T17:08:57.531Z,5.64
2023-03-17T17:13:59.896Z,5.48
2023-03-17T17:19:03.690Z,5.32
2023-03-17T17:24:05.924Z,5.15
2023-03-17T17:29:07.550Z,5.01
2023-03-17T17:34:09.367Z,4.87
2023-03-17T17:39:14.590Z,4.76
2023-03-17T17:44:16.388Z,4.65
2023-03-17T17:49:18.073Z,4.58
2023-03-17T17:54:19.849Z,4.47
2023-03-17T17:59:22.288Z,4.34
2023-03-17T18:04:23.808Z,4.24
2023-03-17T18:09:25.335Z,4.15
2023-03-17T18:14:27.823Z,4.02
2023-03-17T18:19:29.457Z,3.89
2023-03-17T18:24:31.280Z,3.82
2023-03-17T18:29:32.828Z,3.76
2023-03-17T18:34:46.666Z,3.68
2023-03-17T18:40:05.668Z,3.59
2023-03-17T18:45:11.863Z,3.52
2023-03-17T18:50:16.505Z,3.50
2023-03-17T18:55:18.243Z,3.54
2023-03-17T19:00:20.397Z,3.52
2023-03-17T19:05:22.406Z,3.52
2023-03-17T19:10:23.948Z,3.49
2023-03-17T19:15:26.306Z,3.44
2023-03-17T19:20:28.149Z,3.35
2023-03-17T19:25:30.381Z,3.26
2023-03-17T19:30:32.342Z,3.24
2023-03-17T19:35:34.077Z,3.19
2023-03-17T19:40:37.089Z,3.12
2023-03-17T19:45:38.707Z,3.12
2023-03-17T19:50:40.856Z,3.13
2023-03-17T19:55:44.046Z,3.12
2023-03-17T20:00:45.609Z,3.08
2023-03-17T20:05:47.169Z,3.04
2023-03-17T20:10:55.267Z,3.04
2023-03-17T20:15:57.404Z,3.02
2023-03-17T20:21:00.500Z,3.00
2023-03-17T20:26:02.559Z,2.99
2023-03-17T20:31:04.949Z,2.96
2023-03-17T20:36:06.999Z,2.94
2023-03-17T20:41:11.461Z,2.96
2023-03-17T20:46:22.580Z,2.95
2023-03-17T20:51:26.118Z,2.95
2023-03-17T20:56:29.940Z,2.94
2023-03-17T21:01:36.636Z,2.91
2023-03-17T21:06:39.756Z,2.96
2023-03-17T21:11:43.218Z,3.00
2023-03-17T21:16:47.272Z,3.07
2023-03-17T21:21:49.416Z,3.16
2023-03-17T21:26:51.105Z,3.29
2023-03-17T21:31:52.778Z,3.37
2023-03-17T21:36:54.711Z,3.41
2023-03-17T21:41:57.093Z,3.41
2023-03-17T21:47:02.948Z,3.42
2023-03-17T21:52:05.375Z,3.42
2023-03-17T21:57:07.214Z,3.38
2023-03-17T22:02:11.644Z,3.37
2023-03-17T22:07:13.702Z,3.40
2023-03-17T22:12:15.708Z,3.42
2023-03-17T22:17:17.715Z,3.36
2023-03-17T22:22:23.644Z,3.29
2023-03-17T22:27:25.414Z,3.27
2023-03-17T22:32:26.920Z,3.23
2023-03-17T22:37:29.027Z,3.16
2023-03-17T22:42:31.213Z,3.11
2023-03-17T22:47:32.722Z,3.07
2023-03-17T22:52:35.081Z,3.04
2023-03-17T22:57:39.349Z,3.00
2023-03-17T23:02:41.261Z,3.01
2023-03-17T23:07:50.427Z,3.03
2023-03-17T23:12:53.548Z,3.00
2023-03-17T23:17:55.070Z,2.98
2023-03-17T23:22:57.190Z,2.97
2023-03-17T23:27:58.932Z,2.92
2023-03-17T23:33:01.368Z,2.87
2023-03-17T23:38:04.665Z,2.84
2023-03-17T23:43:06.716Z,2.81
2023-03-17T23:48:10.016Z,2.78
2023-03-17T23:53:11.683Z,2.75
2023-03-17T23:58:13.977Z,2.73
